sensor_id;sensor_type;location;lat;lon;timestamp;temperature;humidity
14585;DHT22;7379;51.506;11.876;2023-07-13T00:02:24;25.40;44.00
14585;DHT22;7379;51.506;11.876;2023-07-13T00:04:52;25.40;44.00
14585;DHT22;7379;51.506;11.876;2023-07-13T00:07:18;25.40;44.20
14585;DHT22;7379;51.506;11.876;2023-07-13T00:09:48;25.40;44.20
14585;DHT22;7379;51.506;11.876;2023-07-13T00:12:26;25.30;44.30
14585;DHT22;7379;51.506;11.876;2023-07-13T00:14:55;25.30;44.30
14585;DHT22;7379;51.506;11.876;2023-07-13T00:17:22;25.30;44.40
14585;DHT22;7379;51.506;11.876;2023-07-13T00:19:48;25.30;44.60
14585;DHT22;7379;51.506;11.876;2023-07-13T00:22:15;25.20;44.50
14585;DHT22;7379;51.506;11.876;2023-07-13T00:24:43;25.20;44.70
14585;DHT22;7379;51.506;11.876;2023-07-13T00:27:12;25.20;44.70
14585;DHT22;7379;51.506;11.876;2023-07-13T00:29:39;25.20;44.70
14585;DHT22;7379;51.506;11.876;2023-07-13T00:32:08;25.20;44.80
14585;DHT22;7379;51.506;11.876;2023-07-13T00:34:37;25.10;44.80
14585;DHT22;7379;51.506;11.876;2023-07-13T00:37:04;25.10;44.90
14585;DHT22;7379;51.506;11.876;2023-07-13T00:39:33;25.10;44.90
14585;DHT22;7379;51.506;11.876;2023-07-13T00:42:00;25.10;45.00
14585;DHT22;7379;51.506;11.876;2023-07-13T00:44:28;25.00;44.90
14585;DHT22;7379;51.506;11.876;2023-07-13T00:46:55;25.00;45.00
14585;DHT22;7379;51.506;11.876;2023-07-13T00:49:25;25.00;45.00
14585;DHT22;7379;51.506;11.876;2023-07-13T00:51:55;25.00;45.10
14585;DHT22;7379;51.506;11.876;2023-07-13T00:54:26;24.90;45.20
14585;DHT22;7379;51.506;11.876;2023-07-13T00:56:56;24.90;45.20
14585;DHT22;7379;51.506;11.876;2023-07-13T00:59:24;24.90;45.40
14585;DHT22;7379;51.506;11.876;2023-07-13T01:01:52;24.90;45.40
14585;DHT22;7379;51.506;11.876;2023-07-13T01:04:19;24.80;45.30
14585;DHT22;7379;51.506;11.876;2023-07-13T01:06:47;24.80;45.40
14585;DHT22;7379;51.506;11.876;2023-07-13T01:09:13;24.80;45.40
14585;DHT22;7379;51.506;11.876;2023-07-13T01:11:41;24.80;45.40
14585;DHT22;7379;51.506;11.876;2023-07-13T01:14:08;24.80;45.50
14585;DHT22;7379;51.506;11.876;2023-07-13T01:16:37;24.70;45.50
14585;DHT22;7379;51.506;11.876;2023-07-13T01:19:12;24.70;45.60
14585;DHT22;7379;51.506;11.876;2023-07-13T01:21:41;24.70;45.70
14585;DHT22;7379;51.506;11.876;2023-07-13T01:24:08;24.70;45.70
14585;DHT22;7379;51.506;11.876;2023-07-13T01:26:35;24.60;45.70
14585;DHT22;7379;51.506;11.876;2023-07-13T01:29:02;24.60;45.70
14585;DHT22;7379;51.506;11.876;2023-07-13T01:31:28;24.60;45.80
14585;DHT22;7379;51.506;11.876;2023-07-13T01:33:55;24.60;45.90
14585;DHT22;7379;51.506;11.876;2023-07-13T01:36:23;24.60;46.00
14585;DHT22;7379;51.506;11.876;2023-07-13T01:38:51;24.60;46.00
14585;DHT22;7379;51.506;11.876;2023-07-13T01:41:17;24.50;46.00
14585;DHT22;7379;51.506;11.876;2023-07-13T01:43:44;24.50;46.10
14585;DHT22;7379;51.506;11.876;2023-07-13T01:46:11;24.50;46.10
14585;DHT22;7379;51.506;11.876;2023-07-13T01:48:37;24.50;46.20
14585;DHT22;7379;51.506;11.876;2023-07-13T01:51:04;24.50;46.30
14585;DHT22;7379;51.506;11.876;2023-07-13T01:53:31;24.40;46.30
14585;DHT22;7379;51.506;11.876;2023-07-13T01:55:59;24.40;46.30
14585;DHT22;7379;51.506;11.876;2023-07-13T01:58:25;24.40;46.30
14585;DHT22;7379;51.506;11.876;2023-07-13T02:00:52;24.40;46.40
14585;DHT22;7379;51.506;11.876;2023-07-13T02:03:19;24.40;46.50
14585;DHT22;7379;51.506;11.876;2023-07-13T02:05:45;24.40;46.50
14585;DHT22;7379;51.506;11.876;2023-07-13T02:08:12;24.40;46.60
14585;DHT22;7379;51.506;11.876;2023-07-13T02:10:39;24.30;46.60
14585;DHT22;7379;51.506;11.876;2023-07-13T02:13:07;24.30;46.60
14585;DHT22;7379;51.506;11.876;2023-07-13T02:15:34;24.30;46.70
14585;DHT22;7379;51.506;11.876;2023-07-13T02:18:04;24.30;46.70
14585;DHT22;7379;51.506;11.876;2023-07-13T02:20:31;24.30;46.80
14585;DHT22;7379;51.506;11.876;2023-07-13T02:22:57;24.20;46.70
14585;DHT22;7379;51.506;11.876;2023-07-13T02:25:24;24.20;46.80
14585;DHT22;7379;51.506;11.876;2023-07-13T02:27:52;24.20;46.90
14585;DHT22;7379;51.506;11.876;2023-07-13T02:30:20;24.20;46.90
14585;DHT22;7379;51.506;11.876;2023-07-13T02:32:50;24.20;47.00
14585;DHT22;7379;51.506;11.876;2023-07-13T02:35:16;24.10;47.00
14585;DHT22;7379;51.506;11.876;2023-07-13T02:37:43;24.10;47.00
14585;DHT22;7379;51.506;11.876;2023-07-13T02:40:10;24.10;47.10
14585;DHT22;7379;51.506;11.876;2023-07-13T02:42:37;24.10;47.20
14585;DHT22;7379;51.506;11.876;2023-07-13T02:45:04;24.10;47.20
14585;DHT22;7379;51.506;11.876;2023-07-13T02:47:33;24.10;47.30
14585;DHT22;7379;51.506;11.876;2023-07-13T02:50:00;24.00;47.20
14585;DHT22;7379;51.506;11.876;2023-07-13T02:52:27;24.00;47.30
14585;DHT22;7379;51.506;11.876;2023-07-13T02:54:54;24.00;47.40
14585;DHT22;7379;51.506;11.876;2023-07-13T02:57:20;24.00;47.50
14585;DHT22;7379;51.506;11.876;2023-07-13T02:59:47;23.90;47.40
14585;DHT22;7379;51.506;11.876;2023-07-13T03:02:14;23.90;47.50
14585;DHT22;7379;51.506;11.876;2023-07-13T03:04:42;23.90;47.60
14585;DHT22;7379;51.506;11.876;2023-07-13T03:07:08;23.90;47.70
14585;DHT22;7379;51.506;11.876;2023-07-13T03:09:35;23.90;47.70
14585;DHT22;7379;51.506;11.876;2023-07-13T03:12:03;23.80;47.70
14585;DHT22;7379;51.506;11.876;2023-07-13T03:14:29;23.80;47.80
14585;DHT22;7379;51.506;11.876;2023-07-13T03:16:56;23.80;47.90
14585;DHT22;7379;51.506;11.876;2023-07-13T03:19:23;23.80;47.90
14585;DHT22;7379;51.506;11.876;2023-07-13T03:21:51;23.80;48.00
14585;DHT22;7379;51.506;11.876;2023-07-13T03:24:18;23.70;48.00
14585;DHT22;7379;51.506;11.876;2023-07-13T03:26:45;23.70;48.00
14585;DHT22;7379;51.506;11.876;2023-07-13T03:29:12;23.70;48.10
14585;DHT22;7379;51.506;11.876;2023-07-13T03:31:39;23.70;48.20
14585;DHT22;7379;51.506;11.876;2023-07-13T03:34:06;23.70;48.30
14585;DHT22;7379;51.506;11.876;2023-07-13T03:36:33;23.70;48.30
14585;DHT22;7379;51.506;11.876;2023-07-13T03:39:03;23.60;48.30
14585;DHT22;7379;51.506;11.876;2023-07-13T03:41:33;23.60;48.30
14585;DHT22;7379;51.506;11.876;2023-07-13T03:44:00;23.60;48.40
14585;DHT22;7379;51.506;11.876;2023-07-13T03:46:27;23.60;48.40
14585;DHT22;7379;51.506;11.876;2023-07-13T03:48:54;23.60;48.50
14585;DHT22;7379;51.506;11.876;2023-07-13T03:51:20;23.50;48.50
14585;DHT22;7379;51.506;11.876;2023-07-13T03:53:47;23.50;48.60
14585;DHT22;7379;51.506;11.876;2023-07-13T03:56:16;23.50;48.70
14585;DHT22;7379;51.506;11.876;2023-07-13T03:58:45;23.50;48.70
14585;DHT22;7379;51.506;11.876;2023-07-13T04:01:13;23.50;48.80
14585;DHT22;7379;51.506;11.876;2023-07-13T04:03:41;23.40;48.70
14585;DHT22;7379;51.506;11.876;2023-07-13T04:06:14;23.40;48.80
14585;DHT22;7379;51.506;11.876;2023-07-13T04:08:47;23.40;48.90
14585;DHT22;7379;51.506;11.876;2023-07-13T04:11:17;23.40;49.00
14585;DHT22;7379;51.506;11.876;2023-07-13T04:13:44;23.40;49.00
14585;DHT22;7379;51.506;11.876;2023-07-13T04:16:11;23.40;49.10
14585;DHT22;7379;51.506;11.876;2023-07-13T04:18:38;23.40;49.20
14585;DHT22;7379;51.506;11.876;2023-07-13T04:21:05;23.30;49.20
14585;DHT22;7379;51.506;11.876;2023-07-13T04:23:31;23.30;49.30
14585;DHT22;7379;51.506;11.876;2023-07-13T04:25:58;23.30;49.30
14585;DHT22;7379;51.506;11.876;2023-07-13T04:28:26;23.30;49.40
14585;DHT22;7379;51.506;11.876;2023-07-13T04:30:53;23.30;49.50
14585;DHT22;7379;51.506;11.876;2023-07-13T04:33:20;23.30;49.60
14585;DHT22;7379;51.506;11.876;2023-07-13T04:35:49;23.30;49.60
14585;DHT22;7379;51.506;11.876;2023-07-13T04:38:20;23.20;49.70
14585;DHT22;7379;51.506;11.876;2023-07-13T04:40:47;23.30;49.80
14585;DHT22;7379;51.506;11.876;2023-07-13T04:43:14;23.20;49.70
14585;DHT22;7379;51.506;11.876;2023-07-13T04:45:42;23.20;49.80
14585;DHT22;7379;51.506;11.876;2023-07-13T04:48:09;23.20;49.90
14585;DHT22;7379;51.506;11.876;2023-07-13T04:50:36;23.20;50.00
14585;DHT22;7379;51.506;11.876;2023-07-13T04:53:03;23.20;50.10
14585;DHT22;7379;51.506;11.876;2023-07-13T04:55:30;23.20;50.20
14585;DHT22;7379;51.506;11.876;2023-07-13T04:57:58;23.20;50.30
14585;DHT22;7379;51.506;11.876;2023-07-13T05:00:26;23.20;50.30
14585;DHT22;7379;51.506;11.876;2023-07-13T05:02:56;23.20;50.40
14585;DHT22;7379;51.506;11.876;2023-07-13T05:05:24;23.10;50.40
14585;DHT22;7379;51.506;11.876;2023-07-13T05:07:51;23.20;50.60
14585;DHT22;7379;51.506;11.876;2023-07-13T05:10:18;23.20;50.70
14585;DHT22;7379;51.506;11.876;2023-07-13T05:12:45;23.20;50.80
14585;DHT22;7379;51.506;11.876;2023-07-13T05:15:12;23.20;50.90
14585;DHT22;7379;51.506;11.876;2023-07-13T05:17:38;23.20;51.00
14585;DHT22;7379;51.506;11.876;2023-07-13T05:20:08;23.30;51.20
14585;DHT22;7379;51.506;11.876;2023-07-13T05:22:35;23.30;51.20
14585;DHT22;7379;51.506;11.876;2023-07-13T05:25:04;23.30;51.20
14585;DHT22;7379;51.506;11.876;2023-07-13T05:27:31;23.40;51.20
14585;DHT22;7379;51.506;11.876;2023-07-13T05:29:57;23.40;51.10
14585;DHT22;7379;51.506;11.876;2023-07-13T05:32:24;23.50;51.20
14585;DHT22;7379;51.506;11.876;2023-07-13T05:34:51;23.50;51.30
14585;DHT22;7379;51.506;11.876;2023-07-13T05:37:19;23.60;51.30
14585;DHT22;7379;51.506;11.876;2023-07-13T05:39:46;23.60;51.30
14585;DHT22;7379;51.506;11.876;2023-07-13T05:42:13;23.60;51.30
14585;DHT22;7379;51.506;11.876;2023-07-13T05:44:40;23.60;51.40
14585;DHT22;7379;51.506;11.876;2023-07-13T05:47:06;23.60;51.40
14585;DHT22;7379;51.506;11.876;2023-07-13T05:49:33;23.60;51.60
14585;DHT22;7379;51.506;11.876;2023-07-13T05:52:00;23.60;51.60
14585;DHT22;7379;51.506;11.876;2023-07-13T05:54:28;23.60;51.60
14585;DHT22;7379;51.506;11.876;2023-07-13T05:56:55;23.60;51.80
14585;DHT22;7379;51.506;11.876;2023-07-13T05:59:22;23.60;51.80
14585;DHT22;7379;51.506;11.876;2023-07-13T06:01:49;23.60;51.80
14585;DHT22;7379;51.506;11.876;2023-07-13T06:04:17;23.60;51.90
14585;DHT22;7379;51.506;11.876;2023-07-13T06:06:44;23.60;52.00
14585;DHT22;7379;51.506;11.876;2023-07-13T06:09:11;23.50;51.80
14585;DHT22;7379;51.506;11.876;2023-07-13T06:11:39;23.50;51.90
14585;DHT22;7379;51.506;11.876;2023-07-13T06:14:05;23.50;51.90
14585;DHT22;7379;51.506;11.876;2023-07-13T06:16:32;23.50;51.90
14585;DHT22;7379;51.506;11.876;2023-07-13T06:18:59;23.50;52.00
14585;DHT22;7379;51.506;11.876;2023-07-13T06:21:25;23.50;52.00
14585;DHT22;7379;51.506;11.876;2023-07-13T06:23:52;23.50;51.90
14585;DHT22;7379;51.506;11.876;2023-07-13T06:26:20;23.50;51.80
14585;DHT22;7379;51.506;11.876;2023-07-13T06:28:48;23.50;51.80
14585;DHT22;7379;51.506;11.876;2023-07-13T06:31:15;23.40;51.70
14585;DHT22;7379;51.506;11.876;2023-07-13T06:33:42;23.40;51.70
14585;DHT22;7379;51.506;11.876;2023-07-13T06:36:09;23.50;51.60
14585;DHT22;7379;51.506;11.876;2023-07-13T06:38:37;23.50;51.50
14585;DHT22;7379;51.506;11.876;2023-07-13T06:41:06;23.40;51.20
14585;DHT22;7379;51.506;11.876;2023-07-13T06:43:33;23.50;51.10
14585;DHT22;7379;51.506;11.876;2023-07-13T06:46:01;23.50;51.10
14585;DHT22;7379;51.506;11.876;2023-07-13T06:48:28;23.50;51.00
14585;DHT22;7379;51.506;11.876;2023-07-13T06:50:54;23.50;50.60
14585;DHT22;7379;51.506;11.876;2023-07-13T06:53:22;23.50;50.50
14585;DHT22;7379;51.506;11.876;2023-07-13T06:55:49;23.50;50.50
14585;DHT22;7379;51.506;11.876;2023-07-13T06:58:17;23.60;50.40
14585;DHT22;7379;51.506;11.876;2023-07-13T07:00:44;23.60;50.10
14585;DHT22;7379;51.506;11.876;2023-07-13T07:03:12;23.60;49.80
14585;DHT22;7379;51.506;11.876;2023-07-13T07:05:39;23.60;49.50
14585;DHT22;7379;51.506;11.876;2023-07-13T07:08:05;23.60;49.20
14585;DHT22;7379;51.506;11.876;2023-07-13T07:10:33;23.60;49.00
14585;DHT22;7379;51.506;11.876;2023-07-13T07:13:00;23.60;48.80
14585;DHT22;7379;51.506;11.876;2023-07-13T07:15:27;23.60;48.60
14585;DHT22;7379;51.506;11.876;2023-07-13T07:17:54;23.60;48.50
14585;DHT22;7379;51.506;11.876;2023-07-13T07:20:22;23.60;48.40
14585;DHT22;7379;51.506;11.876;2023-07-13T07:22:49;23.60;48.30
14585;DHT22;7379;51.506;11.876;2023-07-13T07:25:16;23.60;48.00
14585;DHT22;7379;51.506;11.876;2023-07-13T07:27:43;23.70;48.10
14585;DHT22;7379;51.506;11.876;2023-07-13T07:30:10;23.70;48.10
14585;DHT22;7379;51.506;11.876;2023-07-13T07:32:37;23.60;48.10
14585;DHT22;7379;51.506;11.876;2023-07-13T07:35:05;23.60;48.10
14585;DHT22;7379;51.506;11.876;2023-07-13T07:37:33;23.60;48.10
14585;DHT22;7379;51.506;11.876;2023-07-13T07:40:00;23.60;48.10
14585;DHT22;7379;51.506;11.876;2023-07-13T07:42:26;23.60;48.20
14585;DHT22;7379;51.506;11.876;2023-07-13T07:44:53;23.50;48.10
14585;DHT22;7379;51.506;11.876;2023-07-13T07:47:20;23.60;48.10
14585;DHT22;7379;51.506;11.876;2023-07-13T07:49:48;23.50;48.10
14585;DHT22;7379;51.506;11.876;2023-07-13T07:52:15;23.60;48.20
14585;DHT22;7379;51.506;11.876;2023-07-13T07:54:43;23.60;48.30
14585;DHT22;7379;51.506;11.876;2023-07-13T07:57:09;23.60;48.20
14585;DHT22;7379;51.506;11.876;2023-07-13T07:59:37;23.60;48.30
14585;DHT22;7379;51.506;11.876;2023-07-13T08:02:04;23.60;48.10
14585;DHT22;7379;51.506;11.876;2023-07-13T08:04:31;23.60;48.20
14585;DHT22;7379;51.506;11.876;2023-07-13T08:06:58;23.60;48.20
14585;DHT22;7379;51.506;11.876;2023-07-13T08:09:24;23.70;48.20
14585;DHT22;7379;51.506;11.876;2023-07-13T08:11:52;23.70;48.20
14585;DHT22;7379;51.506;11.876;2023-07-13T08:14:20;23.70;48.10
14585;DHT22;7379;51.506;11.876;2023-07-13T08:16:46;23.70;48.10
14585;DHT22;7379;51.506;11.876;2023-07-13T08:19:13;23.70;48.00
14585;DHT22;7379;51.506;11.876;2023-07-13T08:21:40;23.70;48.20
14585;DHT22;7379;51.506;11.876;2023-07-13T08:24:07;23.70;48.20
14585;DHT22;7379;51.506;11.876;2023-07-13T08:26:34;23.80;48.20
14585;DHT22;7379;51.506;11.876;2023-07-13T08:29:02;23.80;48.10
14585;DHT22;7379;51.506;11.876;2023-07-13T08:31:29;23.80;48.10
14585;DHT22;7379;51.506;11.876;2023-07-13T08:33:56;23.90;48.20
14585;DHT22;7379;51.506;11.876;2023-07-13T08:36:22;23.90;48.20
14585;DHT22;7379;51.506;11.876;2023-07-13T08:38:49;23.90;48.00
14585;DHT22;7379;51.506;11.876;2023-07-13T08:41:17;23.90;48.10
14585;DHT22;7379;51.506;11.876;2023-07-13T08:43:46;23.90;48.10
14585;DHT22;7379;51.506;11.876;2023-07-13T08:46:17;23.90;48.00
14585;DHT22;7379;51.506;11.876;2023-07-13T08:48:47;23.90;47.80
14585;DHT22;7379;51.506;11.876;2023-07-13T08:51:25;23.90;47.80
14585;DHT22;7379;51.506;11.876;2023-07-13T08:53:57;24.00;47.90
14585;DHT22;7379;51.506;11.876;2023-07-13T08:56:27;23.90;47.80
14585;DHT22;7379;51.506;11.876;2023-07-13T08:58:57;23.90;47.90
14585;DHT22;7379;51.506;11.876;2023-07-13T09:01:31;23.90;47.90
14585;DHT22;7379;51.506;11.876;2023-07-13T09:04:04;23.90;47.90
14585;DHT22;7379;51.506;11.876;2023-07-13T09:06:39;23.90;48.00
14585;DHT22;7379;51.506;11.876;2023-07-13T09:09:18;23.90;47.90
14585;DHT22;7379;51.506;11.876;2023-07-13T09:11:50;23.90;47.80
14585;DHT22;7379;51.506;11.876;2023-07-13T09:14:41;23.90;47.70
14585;DHT22;7379;51.506;11.876;2023-07-13T09:17:16;23.90;47.70
14585;DHT22;7379;51.506;11.876;2023-07-13T09:19:44;23.90;47.50
14585;DHT22;7379;51.506;11.876;2023-07-13T09:22:15;23.90;47.50
14585;DHT22;7379;51.506;11.876;2023-07-13T09:24:52;23.90;47.40
14585;DHT22;7379;51.506;11.876;2023-07-13T09:27:21;23.90;47.40
14585;DHT22;7379;51.506;11.876;2023-07-13T09:29:57;23.90;47.40
14585;DHT22;7379;51.506;11.876;2023-07-13T09:32:27;23.90;48.10
14585;DHT22;7379;51.506;11.876;2023-07-13T09:34:56;23.90;47.30
14585;DHT22;7379;51.506;11.876;2023-07-13T09:37:28;23.80;47.00
14585;DHT22;7379;51.506;11.876;2023-07-13T09:39:58;23.80;46.60
14585;DHT22;7379;51.506;11.876;2023-07-13T09:42:26;23.80;46.70
14585;DHT22;7379;51.506;11.876;2023-07-13T09:44:55;23.80;46.70
14585;DHT22;7379;51.506;11.876;2023-07-13T09:47:24;23.80;46.70
14585;DHT22;7379;51.506;11.876;2023-07-13T09:49:58;23.80;46.70
14585;DHT22;7379;51.506;11.876;2023-07-13T09:52:26;23.80;46.80
14585;DHT22;7379;51.506;11.876;2023-07-13T09:54:53;23.80;46.60
14585;DHT22;7379;51.506;11.876;2023-07-13T09:57:25;23.80;46.60
14585;DHT22;7379;51.506;11.876;2023-07-13T09:59:54;23.70;46.40
14585;DHT22;7379;51.506;11.876;2023-07-13T10:02:26;23.80;46.20
14585;DHT22;7379;51.506;11.876;2023-07-13T10:04:59;23.80;46.30
14585;DHT22;7379;51.506;11.876;2023-07-13T10:07:27;23.80;46.10
14585;DHT22;7379;51.506;11.876;2023-07-13T10:09:54;23.70;45.90
14585;DHT22;7379;51.506;11.876;2023-07-13T10:12:21;23.70;45.90
14585;DHT22;7379;51.506;11.876;2023-07-13T10:14:51;23.70;45.90
14585;DHT22;7379;51.506;11.876;2023-07-13T10:17:26;23.70;45.50
14585;DHT22;7379;51.506;11.876;2023-07-13T10:20:00;23.70;45.50
14585;DHT22;7379;51.506;11.876;2023-07-13T10:22:36;23.70;45.80
14585;DHT22;7379;51.506;11.876;2023-07-13T10:25:13;23.70;46.10
14585;DHT22;7379;51.506;11.876;2023-07-13T10:27:41;23.70;46.10
14585;DHT22;7379;51.506;11.876;2023-07-13T10:30:12;23.80;46.50
14585;DHT22;7379;51.506;11.876;2023-07-13T10:32:40;23.80;46.40
14585;DHT22;7379;51.506;11.876;2023-07-13T10:35:12;23.90;46.30
14585;DHT22;7379;51.506;11.876;2023-07-13T10:37:44;23.90;46.30
14585;DHT22;7379;51.506;11.876;2023-07-13T10:40:18;23.90;46.20
14585;DHT22;7379;51.506;11.876;2023-07-13T10:42:48;23.90;46.10
14585;DHT22;7379;51.506;11.876;2023-07-13T10:45:17;23.90;46.00
14585;DHT22;7379;51.506;11.876;2023-07-13T10:47:45;23.90;45.30
14585;DHT22;7379;51.506;11.876;2023-07-13T10:50:19;23.90;45.10
14585;DHT22;7379;51.506;11.876;2023-07-13T10:52:47;23.90;45.10
14585;DHT22;7379;51.506;11.876;2023-07-13T10:55:32;23.90;44.80
14585;DHT22;7379;51.506;11.876;2023-07-13T10:58:02;23.90;44.40
14585;DHT22;7379;51.506;11.876;2023-07-13T11:00:31;24.00;44.50
14585;DHT22;7379;51.506;11.876;2023-07-13T11:03:01;24.00;44.80
14585;DHT22;7379;51.506;11.876;2023-07-13T11:05:32;23.90;44.60
14585;DHT22;7379;51.506;11.876;2023-07-13T11:08:12;24.00;43.60
14585;DHT22;7379;51.506;11.876;2023-07-13T11:10:51;24.10;43.30
14585;DHT22;7379;51.506;11.876;2023-07-13T11:13:58;24.10;43.30
14585;DHT22;7379;51.506;11.876;2023-07-13T11:16:36;24.20;43.40
14585;DHT22;7379;51.506;11.876;2023-07-13T11:19:28;24.10;43.00
14585;DHT22;7379;51.506;11.876;2023-07-13T11:22:12;24.20;42.80
14585;DHT22;7379;51.506;11.876;2023-07-13T11:25:00;24.20;42.50
14585;DHT22;7379;51.506;11.876;2023-07-13T11:27:39;24.20;43.20
14585;DHT22;7379;51.506;11.876;2023-07-13T11:30:22;24.20;42.80
14585;DHT22;7379;51.506;11.876;2023-07-13T11:32:51;24.20;42.50
14585;DHT22;7379;51.506;11.876;2023-07-13T11:35:22;24.20;42.40
14585;DHT22;7379;51.506;11.876;2023-07-13T11:37:51;24.20;42.20
14585;DHT22;7379;51.506;11.876;2023-07-13T11:40:19;24.20;41.80
14585;DHT22;7379;51.506;11.876;2023-07-13T11:42:48;24.20;42.10
14585;DHT22;7379;51.506;11.876;2023-07-13T11:45:22;24.20;41.00
14585;DHT22;7379;51.506;11.876;2023-07-13T11:47:49;24.20;41.40
14585;DHT22;7379;51.506;11.876;2023-07-13T11:50:18;24.20;40.90
14585;DHT22;7379;51.506;11.876;2023-07-13T11:52:45;24.20;40.50
14585;DHT22;7379;51.506;11.876;2023-07-13T11:55:17;24.30;40.70
14585;DHT22;7379;51.506;11.876;2023-07-13T11:57:47;24.30;40.60
14585;DHT22;7379;51.506;11.876;2023-07-13T12:00:18;24.30;40.80
14585;DHT22;7379;51.506;11.876;2023-07-13T12:02:49;24.40;40.90
14585;DHT22;7379;51.506;11.876;2023-07-13T12:05:18;24.40;40.80
14585;DHT22;7379;51.506;11.876;2023-07-13T12:07:46;24.40;41.00
14585;DHT22;7379;51.506;11.876;2023-07-13T12:10:19;24.40;41.30
14585;DHT22;7379;51.506;11.876;2023-07-13T12:12:48;24.40;41.10
14585;DHT22;7379;51.506;11.876;2023-07-13T12:15:15;24.40;40.60
14585;DHT22;7379;51.506;11.876;2023-07-13T12:17:42;24.30;40.50
14585;DHT22;7379;51.506;11.876;2023-07-13T12:20:20;24.40;40.50
14585;DHT22;7379;51.506;11.876;2023-07-13T12:22:47;24.40;40.60
14585;DHT22;7379;51.506;11.876;2023-07-13T12:25:17;24.40;40.50
14585;DHT22;7379;51.506;11.876;2023-07-13T12:27:47;24.40;40.80
14585;DHT22;7379;51.506;11.876;2023-07-13T12:30:25;24.40;40.70
14585;DHT22;7379;51.506;11.876;2023-07-13T12:32:59;24.40;40.50
14585;DHT22;7379;51.506;11.876;2023-07-13T12:35:29;24.40;40.60
14585;DHT22;7379;51.506;11.876;2023-07-13T12:37:59;24.40;40.00
14585;DHT22;7379;51.506;11.876;2023-07-13T12:40:31;24.60;40.40
14585;DHT22;7379;51.506;11.876;2023-07-13T12:42:59;24.60;39.90
14585;DHT22;7379;51.506;11.876;2023-07-13T12:45:30;24.80;39.60
14585;DHT22;7379;51.506;11.876;2023-07-13T12:47:59;25.00;39.20
14585;DHT22;7379;51.506;11.876;2023-07-13T12:50:34;25.00;39.40
14585;DHT22;7379;51.506;11.876;2023-07-13T12:53:05;25.10;39.10
14585;DHT22;7379;51.506;11.876;2023-07-13T12:55:42;25.10;38.60
14585;DHT22;7379;51.506;11.876;2023-07-13T12:58:16;25.10;38.70
14585;DHT22;7379;51.506;11.876;2023-07-13T13:00:48;25.10;38.60
14585;DHT22;7379;51.506;11.876;2023-07-13T13:03:22;25.10;38.20
14585;DHT22;7379;51.506;11.876;2023-07-13T13:05:57;25.10;38.30
14585;DHT22;7379;51.506;11.876;2023-07-13T13:08:25;25.10;38.30
14585;DHT22;7379;51.506;11.876;2023-07-13T13:10:53;25.20;37.90
14585;DHT22;7379;51.506;11.876;2023-07-13T13:13:20;25.30;37.90
14585;DHT22;7379;51.506;11.876;2023-07-13T13:15:47;25.30;37.30
14585;DHT22;7379;51.506;11.876;2023-07-13T13:18:18;25.40;37.00
14585;DHT22;7379;51.506;11.876;2023-07-13T13:20:45;25.50;36.90
14585;DHT22;7379;51.506;11.876;2023-07-13T13:23:13;25.50;36.70
14585;DHT22;7379;51.506;11.876;2023-07-13T13:25:43;25.60;36.60
14585;DHT22;7379;51.506;11.876;2023-07-13T13:28:14;25.70;36.50
14585;DHT22;7379;51.506;11.876;2023-07-13T13:30:42;25.80;36.50
14585;DHT22;7379;51.506;11.876;2023-07-13T13:33:11;25.80;36.10
14585;DHT22;7379;51.506;11.876;2023-07-13T13:35:39;26.10;36.10
14585;DHT22;7379;51.506;11.876;2023-07-13T13:38:10;26.10;36.20
14585;DHT22;7379;51.506;11.876;2023-07-13T13:40:39;26.10;36.20
14585;DHT22;7379;51.506;11.876;2023-07-13T13:43:15;26.10;36.00
14585;DHT22;7379;51.506;11.876;2023-07-13T13:45:43;26.00;36.20
14585;DHT22;7379;51.506;11.876;2023-07-13T13:48:15;25.90;36.30
14585;DHT22;7379;51.506;11.876;2023-07-13T13:50:42;25.80;36.60
14585;DHT22;7379;51.506;11.876;2023-07-13T13:53:10;25.90;36.60
14585;DHT22;7379;51.506;11.876;2023-07-13T13:55:37;26.10;36.60
14585;DHT22;7379;51.506;11.876;2023-07-13T13:58:04;26.20;36.30
14585;DHT22;7379;51.506;11.876;2023-07-13T14:00:33;26.10;36.30
14585;DHT22;7379;51.506;11.876;2023-07-13T14:02:59;26.00;36.60
14585;DHT22;7379;51.506;11.876;2023-07-13T14:05:27;25.90;36.70
14585;DHT22;7379;51.506;11.876;2023-07-13T14:07:55;26.00;36.60
14585;DHT22;7379;51.506;11.876;2023-07-13T14:10:23;26.10;36.40
14585;DHT22;7379;51.506;11.876;2023-07-13T14:12:52;26.30;36.60
14585;DHT22;7379;51.506;11.876;2023-07-13T14:15:21;26.40;36.40
14585;DHT22;7379;51.506;11.876;2023-07-13T14:17:50;26.60;36.20
14585;DHT22;7379;51.506;11.876;2023-07-13T14:20:18;26.40;36.50
14585;DHT22;7379;51.506;11.876;2023-07-13T14:22:45;26.40;36.50
14585;DHT22;7379;51.506;11.876;2023-07-13T14:25:12;26.30;36.40
14585;DHT22;7379;51.506;11.876;2023-07-13T14:27:39;26.20;36.80
14585;DHT22;7379;51.506;11.876;2023-07-13T14:30:12;26.10;36.90
14585;DHT22;7379;51.506;11.876;2023-07-13T14:32:40;26.00;37.30
14585;DHT22;7379;51.506;11.876;2023-07-13T14:35:10;26.00;37.60
14585;DHT22;7379;51.506;11.876;2023-07-13T14:37:37;26.00;37.40
14585;DHT22;7379;51.506;11.876;2023-07-13T14:40:12;26.00;37.40
14585;DHT22;7379;51.506;11.876;2023-07-13T14:42:39;26.00;37.60
14585;DHT22;7379;51.506;11.876;2023-07-13T14:45:12;26.00;37.70
14585;DHT22;7379;51.506;11.876;2023-07-13T14:47:39;26.00;37.20
14585;DHT22;7379;51.506;11.876;2023-07-13T14:50:12;25.90;37.20
14585;DHT22;7379;51.506;11.876;2023-07-13T14:52:41;25.80;37.30
14585;DHT22;7379;51.506;11.876;2023-07-13T14:55:10;25.80;38.20
14585;DHT22;7379;51.506;11.876;2023-07-13T14:57:37;25.70;37.50
14585;DHT22;7379;51.506;11.876;2023-07-13T15:00:08;25.70;37.50
14585;DHT22;7379;51.506;11.876;2023-07-13T15:02:39;25.70;37.20
14585;DHT22;7379;51.506;11.876;2023-07-13T15:05:13;25.80;36.90
14585;DHT22;7379;51.506;11.876;2023-07-13T15:07:40;25.80;37.20
14585;DHT22;7379;51.506;11.876;2023-07-13T15:10:13;25.70;37.00
14585;DHT22;7379;51.506;11.876;2023-07-13T15:12:40;25.70;37.00
14585;DHT22;7379;51.506;11.876;2023-07-13T15:15:08;25.70;37.20
14585;DHT22;7379;51.506;11.876;2023-07-13T15:17:37;25.70;37.40
14585;DHT22;7379;51.506;11.876;2023-07-13T15:20:19;25.70;37.40
14585;DHT22;7379;51.506;11.876;2023-07-13T15:22:46;25.80;37.20
14585;DHT22;7379;51.506;11.876;2023-07-13T15:25:17;25.80;37.10
14585;DHT22;7379;51.506;11.876;2023-07-13T15:27:44;25.90;37.10
14585;DHT22;7379;51.506;11.876;2023-07-13T15:30:13;25.90;37.20
14585;DHT22;7379;51.506;11.876;2023-07-13T15:32:40;25.90;37.40
14585;DHT22;7379;51.506;11.876;2023-07-13T15:35:15;25.80;37.40
14585;DHT22;7379;51.506;11.876;2023-07-13T15:37:42;25.80;37.50
14585;DHT22;7379;51.506;11.876;2023-07-13T15:40:11;25.80;37.70
14585;DHT22;7379;51.506;11.876;2023-07-13T15:42:39;25.70;37.70